Time;durP1;ratioP1;P1;durP2;ratioP2;P2;SDS_P1;SDS_P2;PMS_P1;PMS_P2;Temp;Humidity;BMP_temperature;BMP_pressure;BME280_temperature;BME280_humidity;BME280_pressure;Samples;Min_cycle;Max_cycle;Signal;HPM_P1;HPM_P2
2022/06/03 00:00:03;;;;;;;0.5;0.5;;;;;;;15.0;100.0;101690;;;;
2022/06/03 00:01:10;;;;;;;0.5;0.5;;;;;;;15.0;100.0;101690;;;;
2022/06/03 00:02:10;;;;;;;0.5;0.5;;;;;;;15.0;100.0;101690;;;;
2022/06/03 00:03:02;;;;;;;0.5;0.5;;;;;;;15.0;100.0;101690;;;;
2022/06/03 00:04:10;;;;;;;0.5;0.5;;;;;;;15.0;100.0;101690;;;;
2022/06/03 00:05:10;;;;;;;0.5;0.5;;;;;;;15.0;100.0;101690;;;;
2022/06/03 00:06:10;;;;;;;0.5;0.5;;;;;;;15.0;100.0;101690;;;;
2022/06/03 00:07:00;;;;;;;0.5;0.5;;;;;;;15.0;100.0;101690;;;;
2022/06/03 00:08:10;;;;;;;0.5;0.5;;;;;;;14.9;100.0;101690;;;;
2022/06/03 00:09:12;;;;;;;0.7;0.7;;;;;;;14.9;100.0;101690;;;;
2022/06/03 00:10:07;;;;;;;0.7;0.7;;;;;;;15.0;100.0;101690;;;;
2022/06/03 00:11:10;;;;;;;0.7;0.7;;;;;;;15.0;100.0;101690;;;;
2022/06/03 00:12:06;;;;;;;0.7;0.7;;;;;;;14.8;100.0;101690;;;;
2022/06/03 00:13:08;;;;;;;0.7;0.7;;;;;;;14.8;100.0;101690;;;;
2022/06/03 00:14:10;;;;;;;0.7;0.7;;;;;;;14.8;100.0;101680;;;;
2022/06/03 00:15:10;;;;;;;0.7;0.7;;;;;;;14.8;100.0;101680;;;;
2022/06/03 00:16:10;;;;;;;0.7;0.7;;;;;;;14.7;100.0;101690;;;;
2022/06/03 00:17:00;;;;;;;0.7;0.7;;;;;;;14.7;100.0;101690;;;;
2022/06/03 00:18:07;;;;;;;0.7;0.7;;;;;;;14.6;100.0;101690;;;;
2022/06/03 00:19:04;;;;;;;0.7;0.7;;;;;;;14.6;100.0;101690;;;;
2022/06/03 00:20:10;;;;;;;0.7;0.7;;;;;;;14.6;100.0;101690;;;;
2022/06/03 00:21:02;;;;;;;0.7;0.7;;;;;;;14.6;100.0;101690;;;;
2022/06/03 00:22:01;;;;;;;0.7;0.7;;;;;;;14.6;100.0;101690;;;;
2022/06/03 00:23:01;;;;;;;0.7;0.7;;;;;;;14.6;100.0;101690;;;;
2022/06/03 00:24:03;;;;;;;0.7;0.7;;;;;;;14.6;100.0;101690;;;;
2022/06/03 00:25:06;;;;;;;0.7;0.7;;;;;;;14.6;100.0;101690;;;;
2022/06/03 00:26:01;;;;;;;0.7;0.7;;;;;;;14.6;100.0;101690;;;;
2022/06/03 00:27:01;;;;;;;0.7;0.7;;;;;;;14.6;100.0;101690;;;;
2022/06/03 00:28:09;;;;;;;0.7;0.7;;;;;;;14.5;100.0;101680;;;;
2022/06/03 00:29:07;;;;;;;0.4;0.4;;;;;;;14.5;100.0;101680;;;;
2022/06/03 00:30:10;;;;;;;0.4;0.4;;;;;;;14.6;100.0;101680;;;;
2022/06/03 00:31:08;;;;;;;0.4;0.4;;;;;;;14.6;100.0;101680;;;;
2022/06/03 00:32:10;;;;;;;0.4;0.4;;;;;;;14.5;100.0;101680;;;;
2022/06/03 00:33:10;;;;;;;0.4;0.4;;;;;;;14.5;100.0;101680;;;;
2022/06/03 00:34:00;;;;;;;0.4;0.4;;;;;;;14.6;100.0;101680;;;;
2022/06/03 00:35:10;;;;;;;0.4;0.4;;;;;;;14.6;100.0;101680;;;;
2022/06/03 00:36:10;;;;;;;0.4;0.4;;;;;;;14.6;100.0;101690;;;;
2022/06/03 00:37:10;;;;;;;0.4;0.4;;;;;;;14.6;100.0;101690;;;;
2022/06/03 00:38:10;;;;;;;0.4;0.4;;;;;;;14.6;100.0;101690;;;;
2022/06/03 00:39:10;;;;;;;0.4;0.4;;;;;;;14.6;100.0;101690;;;;
2022/06/03 00:40:00;;;;;;;0.4;0.4;;;;;;;14.6;100.0;101690;;;;
2022/06/03 00:41:01;;;;;;;0.4;0.4;;;;;;;14.6;100.0;101690;;;;
2022/06/03 00:42:01;;;;;;;0.4;0.4;;;;;;;14.5;100.0;101680;;;;
2022/06/03 00:43:09;;;;;;;0.4;0.4;;;;;;;14.5;100.0;101680;;;;
2022/06/03 00:44:07;;;;;;;0.4;0.4;;;;;;;14.4;100.0;101680;;;;
2022/06/03 00:45:08;;;;;;;0.4;0.4;;;;;;;14.4;100.0;101680;;;;
2022/06/03 00:46:10;;;;;;;0.4;0.4;;;;;;;14.3;100.0;101680;;;;
2022/06/03 00:47:10;;;;;;;0.4;0.4;;;;;;;14.3;100.0;101680;;;;
2022/06/03 00:48:10;;;;;;;0.4;0.4;;;;;;;14.2;100.0;101680;;;;
2022/06/03 00:49:09;;;;;;;0.5;0.5;;;;;;;14.2;100.0;101680;;;;
2022/06/03 00:50:08;;;;;;;0.5;0.5;;;;;;;14.2;100.0;101680;;;;
2022/06/03 00:51:00;;;;;;;0.5;0.5;;;;;;;14.2;100.0;101680;;;;
2022/06/03 00:52:00;;;;;;;0.5;0.5;;;;;;;14.2;100.0;101680;;;;
2022/06/03 00:53:00;;;;;;;0.5;0.5;;;;;;;14.2;100.0;101680;;;;
2022/06/03 00:54:00;;;;;;;0.5;0.5;;;;;;;14.2;100.0;101680;;;;
2022/06/03 00:55:10;;;;;;;0.5;0.5;;;;;;;14.2;100.0;101680;;;;
2022/06/03 00:56:10;;;;;;;0.5;0.5;;;;;;;14.1;100.0;101680;;;;
2022/06/03 00:57:07;;;;;;;0.5;0.5;;;;;;;14.1;100.0;101680;;;;
2022/06/03 00:58:10;;;;;;;0.5;0.5;;;;;;;14.0;100.0;101680;;;;
2022/06/03 00:59:01;;;;;;;0.5;0.5;;;;;;;14.0;100.0;101680;;;;
2022/06/03 01:00:04;;;;;;;0.5;0.5;;;;;;;14.2;100.0;101680;;;;
2022/06/03 01:01:03;;;;;;;0.5;0.5;;;;;;;14.2;100.0;101680;;;;
2022/06/03 01:02:10;;;;;;;0.5;0.5;;;;;;;14.2;100.0;101680;;;;
2022/06/03 01:03:10;;;;;;;0.5;0.5;;;;;;;14.2;100.0;101680;;;;
2022/06/03 01:04:10;;;;;;;0.5;0.5;;;;;;;14.1;100.0;101670;;;;
2022/06/03 01:05:10;;;;;;;0.5;0.5;;;;;;;14.1;100.0;101670;;;;
2022/06/03 01:06:10;;;;;;;0.5;0.5;;;;;;;14.1;100.0;101670;;;;
2022/06/03 01:07:10;;;;;;;0.5;0.5;;;;;;;14.1;100.0;101670;;;;
2022/06/03 01:08:10;;;;;;;0.5;0.5;;;;;;;14.1;100.0;101660;;;;
2022/06/03 01:09:07;;;;;;;0.6;0.6;;;;;;;14.1;100.0;101660;;;;
2022/06/03 01:10:10;;;;;;;0.6;0.6;;;;;;;14.0;100.0;101670;;;;
2022/06/03 01:11:07;;;;;;;0.6;0.6;;;;;;;14.0;100.0;101670;;;;
2022/06/03 01:12:00;;;;;;;0.6;0.6;;;;;;;13.9;100.0;101660;;;;
2022/06/03 01:13:12;;;;;;;0.6;0.6;;;;;;;13.9;100.0;101660;;;;
2022/06/03 01:14:10;;;;;;;0.6;0.6;;;;;;;13.9;100.0;101660;;;;
2022/06/03 01:15:08;;;;;;;0.6;0.6;;;;;;;13.9;100.0;101660;;;;
2022/06/03 01:16:10;;;;;;;0.6;0.6;;;;;;;13.9;100.0;101660;;;;
2022/06/03 01:17:20;;;;;;;0.6;0.6;;;;;;;13.9;100.0;101660;;;;
2022/06/03 01:18:00;;;;;;;0.6;0.6;;;;;;;13.9;100.0;101660;;;;
2022/06/03 01:19:10;;;;;;;0.6;0.6;;;;;;;13.9;100.0;101660;;;;
2022/06/03 01:20:08;;;;;;;0.6;0.6;;;;;;;13.9;100.0;101660;;;;
2022/06/03 01:21:03;;;;;;;0.6;0.6;;;;;;;13.9;100.0;101660;;;;
2022/06/03 01:22:10;;;;;;;0.6;0.6;;;;;;;14.0;100.0;101660;;;;
2022/06/03 01:23:03;;;;;;;0.6;0.6;;;;;;;14.0;100.0;101660;;;;
2022/06/03 01:24:00;;;;;;;0.6;0.6;;;;;;;13.9;100.0;101660;;;;
2022/06/03 01:25:00;;;;;;;0.6;0.6;;;;;;;13.9;100.0;101660;;;;
2022/06/03 01:26:00;;;;;;;0.6;0.6;;;;;;;14.1;100.0;101660;;;;
2022/06/03 01:27:10;;;;;;;0.6;0.6;;;;;;;14.1;100.0;101660;;;;
2022/06/03 01:28:10;;;;;;;0.6;0.6;;;;;;;14.1;100.0;101650;;;;
2022/06/03 01:29:00;;;;;;;0.5;0.5;;;;;;;14.1;100.0;101650;;;;
2022/06/03 01:30:10;;;;;;;0.5;0.5;;;;;;;14.0;100.0;101650;;;;
2022/06/03 01:31:10;;;;;;;0.5;0.5;;;;;;;14.0;100.0;101650;;;;
2022/06/03 01:32:10;;;;;;;0.5;0.5;;;;;;;13.9;100.0;101650;;;;
2022/06/03 01:33:10;;;;;;;0.5;0.5;;;;;;;13.9;100.0;101650;;;;
2022/06/03 01:34:10;;;;;;;0.5;0.5;;;;;;;14.0;100.0;101650;;;;
2022/06/03 01:35:01;;;;;;;0.5;0.5;;;;;;;14.0;100.0;101650;;;;
2022/06/03 01:36:07;;;;;;;0.5;0.5;;;;;;;14.0;100.0;101650;;;;
2022/06/03 01:37:10;;;;;;;0.5;0.5;;;;;;;14.0;100.0;101650;;;;
2022/06/03 01:38:10;;;;;;;0.5;0.5;;;;;;;14.1;100.0;101650;;;;
2022/06/03 01:39:00;;;;;;;0.5;0.5;;;;;;;14.1;100.0;101650;;;;
2022/06/03 01:40:10;;;;;;;0.5;0.5;;;;;;;13.9;100.0;101650;;;;
2022/06/03 01:41:10;;;;;;;0.5;0.5;;;;;;;13.9;100.0;101650;;;;
2022/06/03 01:42:10;;;;;;;0.5;0.5;;;;;;;14.1;100.0;101640;;;;
2022/06/03 01:43:07;;;;;;;0.5;0.5;;;;;;;14.1;100.0;101640;;;;
2022/06/03 01:44:10;;;;;;;0.5;0.5;;;;;;;14.1;100.0;101640;;;;
2022/06/03 01:45:00;;;;;;;0.5;0.5;;;;;;;14.1;100.0;101640;;;;
2022/06/03 01:46:10;;;;;;;0.5;0.5;;;;;;;14.1;100.0;101640;;;;
2022/06/03 01:47:01;;;;;;;0.5;0.5;;;;;;;14.1;100.0;101640;;;;
2022/06/03 01:48:03;;;;;;;0.5;0.5;;;;;;;14.2;100.0;101630;;;;
2022/06/03 01:49:10;;;;;;;0.6;0.6;;;;;;;14.2;100.0;101630;;;;
2022/06/03 01:50:10;;;;;;;0.6;0.6;;;;;;;14.1;100.0;101640;;;;
2022/06/03 01:51:01;;;;;;;0.6;0.6;;;;;;;14.1;100.0;101640;;;;
2022/06/03 01:52:10;;;;;;;0.6;0.6;;;;;;;14.1;100.0;101640;;;;
2022/06/03 01:53:03;;;;;;;0.6;0.6;;;;;;;14.1;100.0;101640;;;;
2022/06/03 01:54:10;;;;;;;0.6;0.6;;;;;;;14.1;100.0;101630;;;;
2022/06/03 01:55:10;;;;;;;0.6;0.6;;;;;;;14.1;100.0;101630;;;;
2022/06/03 01:56:10;;;;;;;0.6;0.6;;;;;;;14.0;100.0;101630;;;;
2022/06/03 01:57:10;;;;;;;0.6;0.6;;;;;;;14.0;100.0;101630;;;;
2022/06/03 01:58:00;;;;;;;0.6;0.6;;;;;;;14.2;100.0;101630;;;;
2022/06/03 01:59:10;;;;;;;0.6;0.6;;;;;;;14.2;100.0;101630;;;;
2022/06/03 02:00:10;;;;;;;0.6;0.6;;;;;;;14.2;100.0;101620;;;;
2022/06/03 02:01:07;;;;;;;0.6;0.6;;;;;;;14.2;100.0;101620;;;;
2022/06/03 02:02:10;;;;;;;0.6;0.6;;;;;;;14.2;100.0;101620;;;;
2022/06/03 02:03:00;;;;;;;0.6;0.6;;;;;;;14.2;100.0;101620;;;;
2022/06/03 02:04:00;;;;;;;0.6;0.6;;;;;;;14.2;100.0;101620;;;;
2022/06/03 02:05:10;;;;;;;0.6;0.6;;;;;;;14.2;100.0;101620;;;;
2022/06/03 02:06:08;;;;;;;0.6;0.6;;;;;;;14.2;100.0;101620;;;;
2022/06/03 02:07:01;;;;;;;0.6;0.6;;;;;;;14.2;100.0;101620;;;;
2022/06/03 02:08:03;;;;;;;0.6;0.6;;;;;;;14.1;100.0;101620;;;;
2022/06/03 02:09:09;;;;;;;0.8;0.8;;;;;;;14.1;100.0;101620;;;;
2022/06/03 02:10:00;;;;;;;0.8;0.8;;;;;;;14.0;100.0;101620;;;;
2022/06/03 02:11:10;;;;;;;0.8;0.8;;;;;;;14.0;100.0;101620;;;;
2022/06/03 02:12:03;;;;;;;0.8;0.8;;;;;;;13.9;100.0;101620;;;;
2022/06/03 02:13:10;;;;;;;0.8;0.8;;;;;;;13.9;100.0;101620;;;;
2022/06/03 02:14:10;;;;;;;0.8;0.8;;;;;;;13.9;100.0;101620;;;;
2022/06/03 02:15:00;;;;;;;0.8;0.8;;;;;;;13.9;100.0;101620;;;;
2022/06/03 02:16:00;;;;;;;0.8;0.8;;;;;;;14.0;100.0;101610;;;;
2022/06/03 02:17:10;;;;;;;0.8;0.8;;;;;;;14.0;100.0;101610;;;;
2022/06/03 02:18:00;;;;;;;0.8;0.8;;;;;;;14.1;100.0;101620;;;;
2022/06/03 02:19:10;;;;;;;0.8;0.8;;;;;;;14.1;100.0;101620;;;;
2022/06/03 02:20:10;;;;;;;0.8;0.8;;;;;;;14.1;100.0;101620;;;;
2022/06/03 02:21:01;;;;;;;0.8;0.8;;;;;;;14.1;100.0;101620;;;;
2022/06/03 02:22:10;;;;;;;0.8;0.8;;;;;;;14.0;100.0;101620;;;;
2022/06/03 02:23:10;;;;;;;0.8;0.8;;;;;;;14.0;100.0;101620;;;;
2022/06/03 02:24:10;;;;;;;0.8;0.8;;;;;;;13.9;100.0;101620;;;;
2022/06/03 02:25:01;;;;;;;0.8;0.8;;;;;;;13.9;100.0;101620;;;;
2022/06/03 02:26:03;;;;;;;0.8;0.8;;;;;;;13.9;100.0;101620;;;;
2022/06/03 02:27:10;;;;;;;0.8;0.8;;;;;;;13.9;100.0;101620;;;;
2022/06/03 02:28:00;;;;;;;0.8;0.8;;;;;;;13.9;100.0;101630;;;;
2022/06/03 02:31:10;;;;;;;0.8;0.8;;;;;;;13.9;100.0;101620;;;;
2022/06/03 02:32:00;;;;;;;0.8;0.8;;;;;;;13.8;100.0;101620;;;;
2022/06/03 02:33:01;;;;;;;0.8;0.8;;;;;;;13.8;100.0;101620;;;;
2022/06/03 02:34:01;;;;;;;0.8;0.8;;;;;;;13.8;100.0;101610;;;;
2022/06/03 02:35:07;;;;;;;0.8;0.8;;;;;;;13.8;100.0;101610;;;;
2022/06/03 02:36:10;;;;;;;0.8;0.8;;;;;;;13.9;100.0;101610;;;;
2022/06/03 02:37:08;;;;;;;0.8;0.8;;;;;;;13.9;100.0;101610;;;;
2022/06/03 02:38:09;;;;;;;0.8;0.8;;;;;;;13.7;100.0;101610;;;;
2022/06/03 02:39:09;;;;;;;0.8;0.8;;;;;;;13.7;100.0;101610;;;;
2022/06/03 02:40:10;;;;;;;0.8;0.8;;;;;;;13.7;100.0;101620;;;;
2022/06/03 02:41:10;;;;;;;0.8;0.8;;;;;;;13.7;100.0;101620;;;;
2022/06/03 02:42:10;;;;;;;0.8;0.8;;;;;;;13.8;100.0;101610;;;;
2022/06/03 02:43:11;;;;;;;0.8;0.8;;;;;;;13.8;100.0;101610;;;;
2022/06/03 02:44:00;;;;;;;0.8;0.8;;;;;;;13.8;100.0;101610;;;;
2022/06/03 02:45:10;;;;;;;0.8;0.8;;;;;;;13.8;100.0;101610;;;;
2022/06/03 02:46:00;;;;;;;0.8;0.8;;;;;;;13.8;100.0;101600;;;;
2022/06/03 02:47:10;;;;;;;0.8;0.8;;;;;;;13.8;100.0;101600;;;;
2022/06/03 02:48:10;;;;;;;0.8;0.8;;;;;;;13.9;100.0;101600;;;;
2022/06/03 02:49:01;;;;;;;0.5;0.5;;;;;;;13.9;100.0;101600;;;;
2022/06/03 02:50:10;;;;;;;0.5;0.5;;;;;;;13.8;100.0;101600;;;;
2022/06/03 02:51:10;;;;;;;0.5;0.5;;;;;;;13.8;100.0;101600;;;;
2022/06/03 02:52:05;;;;;;;0.5;0.5;;;;;;;13.8;100.0;101600;;;;
2022/06/03 02:53:01;;;;;;;0.5;0.5;;;;;;;13.8;100.0;101600;;;;
2022/06/03 02:54:10;;;;;;;0.5;0.5;;;;;;;13.7;100.0;101610;;;;
2022/06/03 02:55:10;;;;;;;0.5;0.5;;;;;;;13.7;100.0;101610;;;;
2022/06/03 02:56:00;;;;;;;0.5;0.5;;;;;;;13.6;100.0;101610;;;;
2022/06/03 02:57:10;;;;;;;0.5;0.5;;;;;;;13.6;100.0;101610;;;;
2022/06/03 02:58:11;;;;;;;0.5;0.5;;;;;;;13.6;100.0;101610;;;;
2022/06/03 02:59:10;;;;;;;0.5;0.5;;;;;;;13.6;100.0;101610;;;;
2022/06/03 03:00:10;;;;;;;0.5;0.5;;;;;;;13.7;100.0;101600;;;;
2022/06/03 03:01:10;;;;;;;0.5;0.5;;;;;;;13.7;100.0;101600;;;;
2022/06/03 03:02:09;;;;;;;0.5;0.5;;;;;;;13.7;100.0;101610;;;;
2022/06/03 03:03:01;;;;;;;0.5;0.5;;;;;;;13.7;100.0;101610;;;;
2022/06/03 03:04:09;;;;;;;0.5;0.5;;;;;;;13.6;100.0;101600;;;;
2022/06/03 03:05:11;;;;;;;0.5;0.5;;;;;;;13.6;100.0;101600;;;;
2022/06/03 03:06:00;;;;;;;0.5;0.5;;;;;;;13.5;100.0;101600;;;;
2022/06/03 03:07:10;;;;;;;0.5;0.5;;;;;;;13.5;100.0;101600;;;;
2022/06/03 03:08:10;;;;;;;0.5;0.5;;;;;;;13.7;100.0;101600;;;;
2022/06/03 03:09:10;;;;;;;0.6;0.6;;;;;;;13.7;100.0;101600;;;;
2022/06/03 03:10:10;;;;;;;0.6;0.6;;;;;;;13.6;100.0;101600;;;;
2022/06/03 03:11:10;;;;;;;0.6;0.6;;;;;;;13.6;100.0;101600;;;;
2022/06/03 03:12:01;;;;;;;0.6;0.6;;;;;;;13.5;100.0;101600;;;;
2022/06/03 03:13:10;;;;;;;0.6;0.6;;;;;;;13.5;100.0;101600;;;;
2022/06/03 03:14:00;;;;;;;0.6;0.6;;;;;;;13.5;100.0;101610;;;;
2022/06/03 03:15:10;;;;;;;0.6;0.6;;;;;;;13.5;100.0;101610;;;;
2022/06/03 03:16:03;;;;;;;0.6;0.6;;;;;;;13.6;100.0;101610;;;;
2022/06/03 03:17:10;;;;;;;0.6;0.6;;;;;;;13.6;100.0;101610;;;;
2022/06/03 03:18:03;;;;;;;0.6;0.6;;;;;;;13.5;100.0;101610;;;;
2022/06/03 03:19:01;;;;;;;0.6;0.6;;;;;;;13.5;100.0;101610;;;;
2022/06/03 03:20:08;;;;;;;0.6;0.6;;;;;;;13.5;100.0;101610;;;;
2022/06/03 03:21:10;;;;;;;0.6;0.6;;;;;;;13.5;100.0;101610;;;;
2022/06/03 03:22:00;;;;;;;0.6;0.6;;;;;;;13.4;100.0;101610;;;;
2022/06/03 03:23:10;;;;;;;0.6;0.6;;;;;;;13.4;100.0;101610;;;;
2022/06/03 03:24:10;;;;;;;0.6;0.6;;;;;;;13.4;100.0;101610;;;;
2022/06/03 03:25:10;;;;;;;0.6;0.6;;;;;;;13.4;100.0;101610;;;;
2022/06/03 03:26:10;;;;;;;0.6;0.6;;;;;;;13.3;100.0;101610;;;;
2022/06/03 03:27:10;;;;;;;0.6;0.6;;;;;;;13.3;100.0;101610;;;;
2022/06/03 03:28:10;;;;;;;0.6;0.6;;;;;;;13.2;100.0;101610;;;;
2022/06/03 03:29:10;;;;;;;0.6;0.6;;;;;;;13.2;100.0;101610;;;;
2022/06/03 03:30:00;;;;;;;0.6;0.6;;;;;;;13.2;100.0;101610;;;;
2022/06/03 03:31:00;;;;;;;0.6;0.6;;;;;;;13.2;100.0;101610;;;;
2022/06/03 03:32:10;;;;;;;0.6;0.6;;;;;;;13.3;100.0;101600;;;;
2022/06/03 03:33:10;;;;;;;0.6;0.6;;;;;;;13.3;100.0;101600;;;;
2022/06/03 03:34:09;;;;;;;0.6;0.6;;;;;;;13.3;100.0;101600;;;;
2022/06/03 03:35:07;;;;;;;0.6;0.6;;;;;;;13.3;100.0;101600;;;;
2022/06/03 03:36:01;;;;;;;0.6;0.6;;;;;;;13.2;100.0;101590;;;;
2022/06/03 03:37:10;;;;;;;0.6;0.6;;;;;;;13.2;100.0;101590;;;;
2022/06/03 03:38:10;;;;;;;0.6;0.6;;;;;;;13.1;100.0;101590;;;;
2022/06/03 03:39:10;;;;;;;0.6;0.6;;;;;;;13.1;100.0;101590;;;;
2022/06/03 03:40:07;;;;;;;0.6;0.6;;;;;;;13.0;100.0;101590;;;;
2022/06/03 03:41:10;;;;;;;0.6;0.6;;;;;;;13.0;100.0;101590;;;;
2022/06/03 03:42:01;;;;;;;0.6;0.6;;;;;;;13.1;100.0;101590;;;;
2022/06/03 03:43:00;;;;;;;0.6;0.6;;;;;;;13.1;100.0;101590;;;;
2022/06/03 03:44:10;;;;;;;0.6;0.6;;;;;;;13.2;100.0;101590;;;;
2022/06/03 03:45:10;;;;;;;0.6;0.6;;;;;;;13.2;100.0;101590;;;;
2022/06/03 03:46:00;;;;;;;0.6;0.6;;;;;;;13.2;100.0;101590;;;;
2022/06/03 03:47:10;;;;;;;0.6;0.6;;;;;;;13.2;100.0;101590;;;;
2022/06/03 03:48:03;;;;;;;0.6;0.6;;;;;;;13.2;100.0;101590;;;;
2022/06/03 03:49:01;;;;;;;0.5;0.5;;;;;;;13.2;100.0;101590;;;;
2022/06/03 03:50:10;;;;;;;0.5;0.5;;;;;;;13.2;100.0;101590;;;;
2022/06/03 03:51:03;;;;;;;0.5;0.5;;;;;;;13.2;100.0;101590;;;;
2022/06/03 03:52:10;;;;;;;0.5;0.5;;;;;;;13.1;100.0;101580;;;;
2022/06/03 03:53:11;;;;;;;0.5;0.5;;;;;;;13.1;100.0;101580;;;;
2022/06/03 03:54:10;;;;;;;0.5;0.5;;;;;;;13.1;100.0;101580;;;;
2022/06/03 03:55:10;;;;;;;0.5;0.5;;;;;;;13.1;100.0;101580;;;;
2022/06/03 03:56:10;;;;;;;0.5;0.5;;;;;;;13.1;100.0;101590;;;;
2022/06/03 03:57:10;;;;;;;0.5;0.5;;;;;;;13.1;100.0;101590;;;;
2022/06/03 03:58:03;;;;;;;0.5;0.5;;;;;;;13.0;100.0;101580;;;;
2022/06/03 03:59:10;;;;;;;0.5;0.5;;;;;;;13.0;100.0;101580;;;;
2022/06/03 04:00:00;;;;;;;0.5;0.5;;;;;;;12.9;100.0;101590;;;;
2022/06/03 04:01:01;;;;;;;0.5;0.5;;;;;;;12.9;100.0;101590;;;;
2022/06/03 04:02:10;;;;;;;0.5;0.5;;;;;;;12.9;100.0;101590;;;;
2022/06/03 04:03:07;;;;;;;0.5;0.5;;;;;;;12.9;100.0;101590;;;;
2022/06/03 04:04:10;;;;;;;0.5;0.5;;;;;;;12.9;100.0;101590;;;;
2022/06/03 04:05:09;;;;;;;0.5;0.5;;;;;;;12.9;100.0;101590;;;;
2022/06/03 04:06:10;;;;;;;0.5;0.5;;;;;;;13.0;100.0;101590;;;;
2022/06/03 04:07:01;;;;;;;0.5;0.5;;;;;;;13.0;100.0;101590;;;;
2022/06/03 04:08:00;;;;;;;0.5;0.5;;;;;;;13.0;100.0;101590;;;;
2022/06/03 04:09:10;;;;;;;0.8;0.8;;;;;;;13.0;100.0;101590;;;;
2022/06/03 04:10:10;;;;;;;0.8;0.8;;;;;;;13.0;100.0;101580;;;;
2022/06/03 04:11:00;;;;;;;0.8;0.8;;;;;;;13.0;100.0;101580;;;;
2022/06/03 04:12:00;;;;;;;0.8;0.8;;;;;;;12.9;100.0;101580;;;;
2022/06/03 04:13:10;;;;;;;0.8;0.8;;;;;;;12.9;100.0;101580;;;;
2022/06/03 04:14:11;;;;;;;0.8;0.8;;;;;;;12.8;100.0;101580;;;;
2022/06/03 04:15:07;;;;;;;0.8;0.8;;;;;;;12.8;100.0;101580;;;;
2022/06/03 04:16:10;;;;;;;0.8;0.8;;;;;;;12.8;100.0;101580;;;;
2022/06/03 04:17:10;;;;;;;0.8;0.8;;;;;;;12.8;100.0;101580;;;;
2022/06/03 04:18:01;;;;;;;0.8;0.8;;;;;;;12.8;100.0;101580;;;;
2022/06/03 04:19:10;;;;;;;0.8;0.8;;;;;;;12.8;100.0;101580;;;;
2022/06/03 04:20:10;;;;;;;0.8;0.8;;;;;;;12.8;100.0;101580;;;;
2022/06/03 04:21:10;;;;;;;0.8;0.8;;;;;;;12.8;100.0;101580;;;;
2022/06/03 04:22:10;;;;;;;0.8;0.8;;;;;;;12.7;100.0;101570;;;;
2022/06/03 04:23:09;;;;;;;0.8;0.8;;;;;;;12.7;100.0;101570;;;;
2022/06/03 04:24:01;;;;;;;0.8;0.8;;;;;;;12.8;100.0;101580;;;;
2022/06/03 04:25:10;;;;;;;0.8;0.8;;;;;;;12.8;100.0;101580;;;;
2022/06/03 04:26:10;;;;;;;0.8;0.8;;;;;;;12.8;100.0;101580;;;;
2022/06/03 04:27:03;;;;;;;0.8;0.8;;;;;;;12.8;100.0;101580;;;;
2022/06/03 04:28:03;;;;;;;0.6;0.6;;;;;;;12.8;100.0;101580;;;;
2022/06/03 04:29:02;;;;;;;0.6;0.6;;;;;;;12.8;100.0;101580;;;;
2022/06/03 04:30:10;;;;;;;0.6;0.6;;;;;;;12.9;100.0;101570;;;;
2022/06/03 04:31:10;;;;;;;0.6;0.6;;;;;;;12.9;100.0;101570;;;;
2022/06/03 04:32:10;;;;;;;0.6;0.6;;;;;;;12.8;100.0;101570;;;;
2022/06/03 04:33:00;;;;;;;0.6;0.6;;;;;;;12.8;100.0;101570;;;;
2022/06/03 04:34:03;;;;;;;0.6;0.6;;;;;;;12.9;100.0;101570;;;;
2022/06/03 04:35:00;;;;;;;0.6;0.6;;;;;;;12.9;100.0;101570;;;;
2022/06/03 04:36:03;;;;;;;0.6;0.6;;;;;;;12.7;100.0;101570;;;;
2022/06/03 04:37:10;;;;;;;0.6;0.6;;;;;;;12.7;100.0;101570;;;;
2022/06/03 04:38:01;;;;;;;0.6;0.6;;;;;;;12.9;100.0;101570;;;;
2022/06/03 04:39:07;;;;;;;0.6;0.6;;;;;;;12.9;100.0;101570;;;;
2022/06/03 04:40:10;;;;;;;0.6;0.6;;;;;;;12.8;100.0;101570;;;;
2022/06/03 04:41:10;;;;;;;0.6;0.6;;;;;;;12.8;100.0;101570;;;;
2022/06/03 04:42:10;;;;;;;0.6;0.6;;;;;;;12.9;100.0;101570;;;;
2022/06/03 04:43:10;;;;;;;0.6;0.6;;;;;;;12.9;100.0;101570;;;;
2022/06/03 04:44:10;;;;;;;0.6;0.6;;;;;;;12.9;100.0;101570;;;;
2022/06/03 04:45:10;;;;;;;0.6;0.6;;;;;;;12.9;100.0;101570;;;;
2022/06/03 04:46:06;;;;;;;0.6;0.6;;;;;;;13.0;100.0;101570;;;;
2022/06/03 04:47:10;;;;;;;0.6;0.6;;;;;;;13.0;100.0;101570;;;;
2022/06/03 04:48:10;;;;;;;1.5;0.9;;;;;;;12.9;100.0;101570;;;;
2022/06/03 04:49:10;;;;;;;1.5;0.9;;;;;;;12.9;100.0;101570;;;;
2022/06/03 04:50:20;;;;;;;1.5;0.9;;;;;;;12.9;100.0;101570;;;;
2022/06/03 04:51:07;;;;;;;1.5;0.9;;;;;;;12.9;100.0;101570;;;;
2022/06/03 04:52:03;;;;;;;1.5;0.9;;;;;;;13.0;100.0;101570;;;;
2022/06/03 04:53:10;;;;;;;1.5;0.9;;;;;;;13.0;100.0;101570;;;;
2022/06/03 04:54:11;;;;;;;1.5;0.9;;;;;;;13.2;100.0;101580;;;;
2022/06/03 04:55:11;;;;;;;1.5;0.9;;;;;;;13.2;100.0;101580;;;;
2022/06/03 04:56:10;;;;;;;1.5;0.9;;;;;;;13.1;100.0;101580;;;;
2022/06/03 04:57:10;;;;;;;1.5;0.9;;;;;;;13.1;100.0;101580;;;;
2022/06/03 04:58:01;;;;;;;1.5;0.9;;;;;;;13.1;100.0;101580;;;;
2022/06/03 04:59:07;;;;;;;1.5;0.9;;;;;;;13.1;100.0;101580;;;;
2022/06/03 05:00:07;;;;;;;1.5;0.9;;;;;;;13.2;100.0;101580;;;;
2022/06/03 05:01:01;;;;;;;1.5;0.9;;;;;;;13.2;100.0;101580;;;;
2022/06/03 05:02:10;;;;;;;1.5;0.9;;;;;;;13.2;100.0;101580;;;;
2022/06/03 05:03:11;;;;;;;1.5;0.9;;;;;;;13.2;100.0;101580;;;;
2022/06/03 05:04:10;;;;;;;1.5;0.9;;;;;;;13.2;100.0;101580;;;;
2022/06/03 05:05:10;;;;;;;1.5;0.9;;;;;;;13.2;100.0;101580;;;;
2022/06/03 05:06:10;;;;;;;1.5;0.9;;;;;;;13.2;100.0;101580;;;;
2022/06/03 05:07:01;;;;;;;1.5;0.9;;;;;;;13.2;100.0;101580;;;;
2022/06/03 05:08:10;;;;;;;1.3;1.3;;;;;;;13.2;100.0;101580;;;;
2022/06/03 05:09:10;;;;;;;1.3;1.3;;;;;;;13.2;100.0;101580;;;;
2022/06/03 05:10:07;;;;;;;1.3;1.3;;;;;;;13.4;100.0;101580;;;;
2022/06/03 05:11:07;;;;;;;1.3;1.3;;;;;;;13.4;100.0;101580;;;;
2022/06/03 05:12:10;;;;;;;1.3;1.3;;;;;;;13.6;100.0;101580;;;;
2022/06/03 05:13:10;;;;;;;1.3;1.3;;;;;;;13.6;100.0;101580;;;;
2022/06/03 05:14:03;;;;;;;1.3;1.3;;;;;;;13.5;100.0;101580;;;;
2022/06/03 05:15:10;;;;;;;1.3;1.3;;;;;;;13.5;100.0;101580;;;;
2022/06/03 05:16:03;;;;;;;1.3;1.3;;;;;;;13.6;100.0;101580;;;;
2022/06/03 05:17:10;;;;;;;1.3;1.3;;;;;;;13.6;100.0;101580;;;;
2022/06/03 05:18:01;;;;;;;1.3;1.3;;;;;;;13.8;100.0;101580;;;;
2022/06/03 05:19:00;;;;;;;1.3;1.3;;;;;;;13.8;100.0;101580;;;;
2022/06/03 05:20:04;;;;;;;1.3;1.3;;;;;;;13.6;100.0;101580;;;;
2022/06/03 05:21:10;;;;;;;1.3;1.3;;;;;;;13.6;100.0;101580;;;;
2022/06/03 05:22:00;;;;;;;1.3;1.3;;;;;;;13.7;100.0;101580;;;;
2022/06/03 05:23:00;;;;;;;1.3;1.3;;;;;;;13.7;100.0;101580;;;;
2022/06/03 05:24:13;;;;;;;1.3;1.3;;;;;;;13.7;100.0;101580;;;;
2022/06/03 05:25:10;;;;;;;1.3;1.3;;;;;;;13.7;100.0;101580;;;;
2022/06/03 05:26:03;;;;;;;1.3;1.3;;;;;;;13.8;100.0;101580;;;;
2022/06/03 05:27:01;;;;;;;1.3;1.3;;;;;;;13.8;100.0;101580;;;;
2022/06/03 05:28:15;;;;;;;0.5;0.5;;;;;;;13.8;100.0;101580;;;;
2022/06/03 05:29:11;;;;;;;0.5;0.5;;;;;;;13.8;100.0;101580;;;;
2022/06/03 05:30:10;;;;;;;0.5;0.5;;;;;;;13.8;100.0;101580;;;;
2022/06/03 05:31:10;;;;;;;0.5;0.5;;;;;;;13.8;100.0;101580;;;;
2022/06/03 05:32:00;;;;;;;0.5;0.5;;;;;;;13.9;100.0;101580;;;;
2022/06/03 05:33:07;;;;;;;0.5;0.5;;;;;;;13.9;100.0;101580;;;;
2022/06/03 05:34:03;;;;;;;0.5;0.5;;;;;;;14.1;100.0;101580;;;;
2022/06/03 05:35:01;;;;;;;0.5;0.5;;;;;;;14.1;100.0;101580;;;;
2022/06/03 05:36:10;;;;;;;0.5;0.5;;;;;;;14.2;100.0;101580;;;;
2022/06/03 05:37:10;;;;;;;0.5;0.5;;;;;;;14.2;100.0;101580;;;;
2022/06/03 05:38:07;;;;;;;0.5;0.5;;;;;;;14.1;100.0;101580;;;;
2022/06/03 05:39:10;;;;;;;0.5;0.5;;;;;;;14.1;100.0;101580;;;;
2022/06/03 05:40:06;;;;;;;0.5;0.5;;;;;;;14.2;100.0;101570;;;;
2022/06/03 05:42:23;;;;;;;0.5;0.5;;;;;;;14.2;100.0;101570;;;;
2022/06/03 05:43:10;;;;;;;0.5;0.5;;;;;;;14.4;100.0;101570;;;;
2022/06/03 05:44:09;;;;;;;0.5;0.5;;;;;;;14.3;100.0;101570;;;;
2022/06/03 05:45:10;;;;;;;0.5;0.5;;;;;;;14.3;100.0;101570;;;;
2022/06/03 05:46:04;;;;;;;0.5;0.5;;;;;;;14.3;100.0;101570;;;;
2022/06/03 05:47:07;;;;;;;0.5;0.5;;;;;;;14.3;100.0;101570;;;;
2022/06/03 05:48:10;;;;;;;0.5;0.5;;;;;;;14.5;100.0;101570;;;;
2022/06/03 05:49:05;;;;;;;0.5;0.5;;;;;;;14.5;100.0;101570;;;;
2022/06/03 05:50:03;;;;;;;0.5;0.5;;;;;;;14.6;100.0;101570;;;;
2022/06/03 05:51:00;;;;;;;0.5;0.5;;;;;;;14.6;100.0;101570;;;;
2022/06/03 05:52:14;;;;;;;0.5;0.5;;;;;;;14.6;100.0;101570;;;;
2022/06/03 05:53:07;;;;;;;0.5;0.5;;;;;;;14.6;100.0;101570;;;;
2022/06/03 05:54:00;;;;;;;0.5;0.5;;;;;;;14.8;100.0;101570;;;;
2022/06/03 05:55:10;;;;;;;0.5;0.5;;;;;;;14.8;100.0;101570;;;;
2022/06/03 05:56:10;;;;;;;0.5;0.5;;;;;;;14.9;100.0;101570;;;;
2022/06/03 05:57:10;;;;;;;0.5;0.5;;;;;;;14.9;100.0;101570;;;;
2022/06/03 05:58:10;;;;;;;0.5;0.5;;;;;;;14.9;100.0;101570;;;;
2022/06/03 05:59:10;;;;;;;0.5;0.5;;;;;;;14.9;100.0;101570;;;;
2022/06/03 06:00:10;;;;;;;0.5;0.5;;;;;;;15.0;100.0;101570;;;;
2022/06/03 06:01:13;;;;;;;0.5;0.5;;;;;;;15.0;100.0;101570;;;;
2022/06/03 06:02:10;;;;;;;0.5;0.5;;;;;;;15.3;100.0;101570;;;;
2022/06/03 06:03:03;;;;;;;0.5;0.5;;;;;;;15.3;100.0;101570;;;;
2022/06/03 06:04:00;;;;;;;0.5;0.5;;;;;;;15.4;100.0;101570;;;;
2022/06/03 06:05:10;;;;;;;0.5;0.5;;;;;;;15.4;100.0;101570;;;;
2022/06/03 06:06:10;;;;;;;0.5;0.5;;;;;;;15.3;100.0;101570;;;;
2022/06/03 06:07:07;;;;;;;0.5;0.5;;;;;;;15.3;100.0;101570;;;;
2022/06/03 06:08:10;;;;;;;0.5;0.5;;;;;;;15.2;100.0;101570;;;;
2022/06/03 06:09:10;;;;;;;0.5;0.5;;;;;;;15.2;100.0;101570;;;;
2022/06/03 06:10:07;;;;;;;0.5;0.5;;;;;;;15.4;100.0;101570;;;;
2022/06/03 06:11:10;;;;;;;0.5;0.5;;;;;;;15.4;100.0;101570;;;;
2022/06/03 06:12:00;;;;;;;0.5;0.5;;;;;;;15.4;100.0;101570;;;;
2022/06/03 06:13:10;;;;;;;0.5;0.5;;;;;;;15.4;100.0;101570;;;;
2022/06/03 06:14:03;;;;;;;0.5;0.5;;;;;;;15.4;100.0;101570;;;;
2022/06/03 06:15:00;;;;;;;0.5;0.5;;;;;;;15.4;100.0;101570;;;;
2022/06/03 06:16:01;;;;;;;0.5;0.5;;;;;;;15.5;100.0;101570;;;;
2022/06/03 06:17:07;;;;;;;0.5;0.5;;;;;;;15.5;100.0;101570;;;;
2022/06/03 06:18:10;;;;;;;0.5;0.5;;;;;;;15.8;100.0;101570;;;;
2022/06/03 06:19:10;;;;;;;0.5;0.5;;;;;;;15.8;100.0;101570;;;;
2022/06/03 06:20:12;;;;;;;0.5;0.5;;;;;;;15.8;100.0;101570;;;;
2022/06/03 06:21:12;;;;;;;0.5;0.5;;;;;;;15.8;100.0;101570;;;;
2022/06/03 06:22:10;;;;;;;0.5;0.5;;;;;;;15.8;100.0;101570;;;;
2022/06/03 06:23:03;;;;;;;0.5;0.5;;;;;;;15.8;100.0;101570;;;;
2022/06/03 06:24:00;;;;;;;0.5;0.5;;;;;;;15.6;100.0;101570;;;;
2022/06/03 06:25:10;;;;;;;0.5;0.5;;;;;;;15.6;100.0;101570;;;;